createdAt,value
2018-11-10T00:01:45.141Z,79.00
2018-11-10T00:04:13.484Z,78.64
2018-11-10T00:06:41.682Z,78.17
2018-11-10T00:09:09.897Z,77.67
2018-11-10T00:11:38.121Z,78.11
2018-11-10T00:14:06.474Z,78.52
2018-11-10T00:16:34.872Z,78.59
2018-11-10T00:19:03.070Z,78.76
2018-11-10T00:21:31.413Z,78.85
2018-11-10T00:23:59.629Z,78.18
2018-11-10T00:26:28.182Z,78.38
2018-11-10T00:28:56.658Z,79.01
2018-11-10T00:31:24.912Z,78.78
2018-11-10T00:33:53.153Z,78.05
2018-11-10T00:36:21.412Z,78.93
2018-11-10T00:38:49.739Z,78.75
2018-11-10T00:41:18.023Z,78.41
2018-11-10T00:43:46.259Z,78.62
2018-11-10T00:46:14.777Z,79.17
2018-11-10T00:48:43.019Z,78.70
2018-11-10T00:51:11.290Z,78.92
2018-11-10T00:53:39.538Z,79.12
2018-11-10T00:56:07.798Z,78.91
2018-11-10T00:58:36.052Z,78.96
2018-11-10T01:01:04.389Z,78.87
2018-11-10T01:03:33.734Z,79.20
2018-11-10T01:06:01.994Z,79.34
2018-11-10T01:08:30.237Z,78.30
2018-11-10T01:10:58.529Z,78.52
2018-11-10T01:13:26.758Z,78.68
2018-11-10T01:15:55.048Z,78.35
2018-11-10T01:18:23.266Z,78.48
2018-11-10T01:20:51.529Z,77.45
2018-11-10T01:23:19.754Z,78.19
2018-11-10T01:25:48.046Z,78.81
2018-11-10T01:28:16.386Z,77.74
2018-11-10T01:30:44.625Z,77.81
2018-11-10T01:33:12.850Z,77.28
2018-11-10T01:35:41.124Z,76.93
2018-11-10T01:38:09.338Z,76.89
2018-11-10T01:40:37.574Z,76.54
2018-11-10T01:43:05.801Z,77.00
2018-11-10T01:45:34.028Z,76.46
2018-11-10T01:48:02.276Z,76.03
2018-11-10T01:50:30.497Z,76.45
2018-11-10T01:52:58.728Z,75.73
2018-11-10T01:55:26.948Z,75.19
2018-11-10T01:57:55.250Z,74.33
2018-11-10T02:00:23.477Z,74.17
2018-11-10T02:02:51.673Z,74.86
2018-11-10T02:05:19.922Z,74.03
2018-11-10T02:07:48.141Z,73.87
2018-11-10T02:10:16.382Z,73.81
2018-11-10T02:12:44.624Z,73.56
2018-11-10T02:15:14.787Z,73.56
2018-11-10T02:17:43.026Z,73.45
2018-11-10T02:20:12.491Z,72.89
2018-11-10T02:22:40.829Z,72.78
2018-11-10T02:25:10.247Z,73.27
2018-11-10T02:27:38.495Z,72.98
2018-11-10T02:30:08.319Z,72.03
2018-11-10T02:32:36.537Z,72.53
2018-11-10T02:35:06.810Z,71.97
2018-11-10T02:37:35.118Z,72.19
2018-11-10T02:40:03.569Z,71.36
2018-11-10T02:42:31.778Z,71.90
2018-11-10T02:44:59.989Z,71.82
2018-11-10T02:47:29.293Z,71.40
2018-11-10T02:49:57.493Z,71.62
2018-11-10T02:52:25.700Z,71.75
2018-11-10T02:54:53.920Z,71.73
2018-11-10T02:57:22.130Z,72.13
2018-11-10T02:59:50.343Z,71.77
2018-11-10T03:02:18.564Z,72.03
2018-11-10T03:04:46.933Z,71.90
2018-11-10T03:07:15.209Z,72.08
2018-11-10T03:09:43.442Z,71.71
2018-11-10T03:12:11.653Z,72.45
2018-11-10T03:14:39.940Z,72.43
2018-11-10T03:17:08.177Z,71.56
2018-11-10T03:19:36.389Z,71.38
2018-11-10T03:22:04.658Z,71.44
2018-11-10T03:24:32.878Z,70.34
2018-11-10T03:27:01.098Z,70.44
2018-11-10T03:29:29.407Z,69.53
2018-11-10T03:31:57.617Z,69.23
2018-11-10T03:34:25.808Z,69.68
2018-11-10T03:36:54.075Z,69.13
2018-11-10T03:39:22.290Z,68.07
2018-11-10T03:41:50.505Z,68.27
2018-11-10T03:44:18.738Z,67.91
2018-11-10T03:46:46.954Z,68.20
2018-11-10T03:49:15.289Z,67.73
2018-11-10T03:51:43.494Z,68.52
2018-11-10T03:54:11.735Z,67.96
2018-11-10T03:56:39.944Z,68.49
2018-11-10T03:59:08.167Z,68.20
2018-11-10T04:01:36.383Z,68.06
2018-11-10T04:04:04.593Z,68.11
2018-11-10T04:06:32.825Z,68.00
2018-11-10T04:09:01.033Z,68.02
2018-11-10T04:11:29.240Z,68.03
2018-11-10T04:13:57.522Z,68.56
2018-11-10T04:16:25.742Z,68.29
2018-11-10T04:18:53.971Z,68.50
2018-11-10T04:21:22.162Z,67.63
2018-11-10T04:23:50.387Z,68.35
2018-11-10T04:26:18.593Z,68.51
2018-11-10T04:28:46.806Z,69.17
2018-11-10T04:31:15.066Z,68.80
2018-11-10T04:33:43.291Z,68.49
2018-11-10T04:36:11.511Z,68.56
2018-11-10T04:38:39.778Z,68.36
2018-11-10T04:41:08.074Z,68.75
2018-11-10T04:43:36.462Z,69.02
2018-11-10T04:46:04.678Z,68.93
2018-11-10T04:48:32.932Z,69.12
2018-11-10T04:51:01.149Z,69.19
2018-11-10T04:53:29.371Z,68.31
2018-11-10T04:55:57.581Z,68.18
2018-11-10T04:58:25.790Z,68.57
2018-11-10T05:00:54.035Z,68.52
2018-11-10T05:03:22.222Z,68.95
2018-11-10T05:05:50.454Z,69.26
2018-11-10T05:08:18.686Z,69.16
2018-11-10T05:10:46.919Z,68.32
2018-11-10T05:13:15.244Z,68.82
2018-11-10T05:15:43.466Z,68.33
2018-11-10T05:18:11.676Z,67.89
2018-11-10T05:20:40.982Z,68.74
2018-11-10T05:23:09.230Z,68.02
2018-11-10T05:25:37.449Z,68.62
2018-11-10T05:28:05.908Z,67.88
2018-11-10T05:30:34.090Z,68.58
2018-11-10T05:33:02.308Z,68.77
2018-11-10T05:35:30.535Z,67.96
2018-11-10T05:37:58.778Z,67.86
2018-11-10T05:40:27.007Z,68.75
2018-11-10T05:42:55.198Z,68.39
2018-11-10T05:45:23.638Z,68.59
2018-11-10T05:47:51.878Z,68.35
2018-11-10T05:50:20.148Z,68.80
2018-11-10T05:52:49.418Z,68.65
2018-11-10T05:55:17.638Z,68.28
2018-11-10T05:57:45.837Z,68.26
2018-11-10T06:00:14.216Z,68.23
2018-11-10T06:02:42.861Z,68.76
2018-11-10T06:05:11.762Z,68.98
2018-11-10T06:07:40.136Z,69.12
2018-11-10T06:10:10.557Z,69.61
2018-11-10T06:12:38.781Z,69.26
2018-11-10T06:15:08.734Z,68.50
2018-11-10T06:17:36.972Z,69.49
2018-11-10T06:20:06.858Z,69.17
2018-11-10T06:22:36.101Z,69.60
2018-11-10T06:25:04.573Z,68.96
2018-11-10T06:27:32.837Z,69.37
2018-11-10T06:30:01.061Z,69.31
2018-11-10T06:32:29.425Z,70.32
2018-11-10T06:34:59.109Z,70.47
2018-11-10T06:37:27.436Z,71.00
2018-11-10T06:39:55.642Z,71.35
2018-11-10T06:42:23.882Z,70.57
2018-11-10T06:44:53.165Z,71.03
2018-11-10T06:47:21.389Z,71.61
2018-11-10T06:49:49.763Z,71.53
2018-11-10T06:52:17.962Z,72.01
2018-11-10T06:54:46.174Z,71.91
2018-11-10T06:57:14.386Z,71.53
2018-11-10T06:59:42.598Z,71.47
2018-11-10T07:02:10.859Z,71.72
2018-11-10T07:04:39.118Z,71.41
2018-11-10T07:07:07.313Z,70.84
2018-11-10T07:09:35.608Z,71.33
2018-11-10T07:12:03.747Z,71.92
2018-11-10T07:14:31.930Z,71.24
2018-11-10T07:17:00.209Z,70.98
2018-11-10T07:19:28.535Z,71.85
2018-11-10T07:21:56.749Z,71.87
2018-11-10T07:24:26.316Z,72.69
2018-11-10T07:27:08.147Z,71.96
2018-11-10T07:29:40.751Z,76.37
2018-11-10T07:32:10.115Z,70.95
2018-11-10T07:34:38.323Z,74.00
2018-11-10T07:37:06.705Z,68.92
2018-11-10T07:39:35.845Z,72.61
2018-11-10T07:42:10.734Z,69.22
2018-11-10T07:44:39.010Z,72.68
2018-11-10T07:47:10.797Z,66.28
2018-11-10T07:49:39.095Z,66.60
2018-11-10T07:52:07.316Z,69.44
2018-11-10T07:54:35.612Z,73.64
2018-11-10T07:57:03.845Z,69.35
2018-11-10T07:59:32.167Z,69.29
2018-11-10T08:02:03.917Z,68.31
2018-11-10T08:04:36.017Z,76.11
2018-11-10T08:07:05.378Z,74.67
2018-11-10T08:09:35.624Z,69.96
2018-11-10T08:12:04.648Z,71.32
2018-11-10T08:14:33.966Z,70.23
2018-11-10T08:17:02.509Z,69.54
2018-11-10T08:19:36.423Z,69.70
2018-11-10T08:22:04.750Z,69.82
2018-11-10T08:24:32.997Z,72.11
2018-11-10T08:27:05.538Z,70.08
2018-11-10T08:29:35.850Z,71.89
2018-11-10T08:32:04.224Z,71.55
2018-11-10T08:34:32.701Z,72.34
2018-11-10T08:37:00.976Z,73.49
2018-11-10T08:39:29.512Z,73.26
2018-11-10T08:41:57.745Z,73.17
2018-11-10T08:44:25.978Z,74.34
2018-11-10T08:46:54.445Z,74.09
2018-11-10T08:49:22.829Z,73.83
2018-11-10T08:51:51.018Z,74.01
2018-11-10T08:54:19.308Z,74.42
2018-11-10T08:56:47.636Z,74.22
2018-11-10T08:59:15.936Z,74.97
2018-11-10T09:01:44.086Z,75.08
2018-11-10T09:04:12.643Z,75.34
2018-11-10T09:06:40.834Z,75.26
2018-11-10T09:09:10.141Z,76.24
2018-11-10T09:11:38.374Z,76.90
2018-11-10T09:14:06.602Z,76.39
2018-11-10T09:16:34.845Z,76.81
2018-11-10T09:19:03.099Z,77.87
2018-11-10T09:21:31.341Z,78.69
2018-11-10T09:23:59.530Z,79.26
2018-11-10T09:26:27.817Z,78.77
2018-11-10T09:28:56.141Z,78.75
2018-11-10T09:31:24.342Z,79.80
2018-11-10T09:33:52.546Z,79.71
2018-11-10T09:36:20.796Z,80.35
2018-11-10T09:38:49.033Z,80.64
2018-11-10T09:41:17.249Z,80.50
2018-11-10T09:43:45.450Z,79.79
2018-11-10T09:46:13.637Z,80.43
2018-11-10T09:48:41.926Z,80.63
2018-11-10T09:51:10.126Z,81.40
2018-11-10T09:53:38.353Z,79.65
2018-11-10T09:56:06.664Z,79.83
2018-11-10T09:58:34.883Z,80.00
2018-11-10T10:01:03.151Z,79.76
2018-11-10T10:03:31.274Z,79.62
2018-11-10T10:05:59.470Z,79.38
2018-11-10T10:08:27.680Z,78.97
2018-11-10T10:10:55.922Z,79.93
2018-11-10T10:13:24.118Z,78.92
2018-11-10T10:15:52.383Z,79.24
2018-11-10T10:18:20.582Z,79.58
2018-11-10T10:20:48.798Z,79.16
2018-11-10T10:23:17.006Z,79.79
2018-11-10T10:25:45.223Z,79.91
2018-11-10T10:28:13.442Z,79.44
2018-11-10T10:30:41.628Z,80.07
2018-11-10T10:33:10.399Z,79.61
2018-11-10T10:35:38.850Z,79.09
2018-11-10T10:38:06.971Z,79.56
2018-11-10T10:40:35.194Z,79.04
2018-11-10T10:43:03.521Z,79.59
2018-11-10T10:45:31.662Z,80.07
2018-11-10T10:48:14.094Z,80.14
2018-11-10T10:50:42.384Z,79.07
2018-11-10T10:53:10.569Z,79.91
2018-11-10T10:55:38.790Z,80.46
2018-11-10T10:58:07.265Z,80.16
2018-11-10T11:00:40.709Z,81.12
2018-11-10T11:03:14.241Z,80.73
2018-11-10T11:05:43.524Z,81.08
2018-11-10T11:08:11.747Z,80.70
2018-11-10T11:10:39.943Z,81.13
2018-11-10T11:13:08.136Z,80.76
2018-11-10T11:15:36.480Z,81.04
2018-11-10T11:18:04.742Z,81.45
2018-11-10T11:20:32.941Z,81.80
2018-11-10T11:23:01.146Z,82.82
2018-11-10T11:25:29.362Z,83.26
2018-11-10T11:27:57.618Z,82.95
2018-11-10T11:30:25.837Z,83.19
2018-11-10T11:32:54.018Z,83.34
2018-11-10T11:35:22.273Z,83.38
2018-11-10T11:37:50.422Z,83.06
2018-11-10T11:40:18.618Z,82.91
2018-11-10T11:42:46.813Z,82.97
2018-11-10T11:45:15.014Z,83.34
2018-11-10T11:47:43.796Z,83.44
2018-11-10T11:50:13.306Z,83.25
2018-11-10T11:52:42.091Z,82.82
2018-11-10T11:55:11.018Z,82.82
2018-11-10T11:57:39.346Z,83.01
2018-11-10T12:00:09.891Z,82.66
2018-11-10T12:02:38.257Z,82.89
2018-11-10T12:05:07.333Z,81.91
2018-11-10T12:07:35.549Z,82.33
2018-11-10T12:10:03.797Z,82.09
2018-11-10T12:12:31.984Z,81.41
2018-11-10T12:15:00.158Z,81.06
2018-11-10T12:17:28.358Z,81.34
2018-11-10T12:19:56.545Z,80.73
2018-11-10T12:22:24.754Z,80.60
2018-11-10T12:24:56.464Z,80.74
2018-11-10T12:27:24.692Z,81.16
2018-11-10T12:29:52.854Z,81.54
2018-11-10T12:32:21.134Z,80.77
2018-11-10T12:34:49.379Z,80.41
2018-11-10T12:37:17.576Z,80.48
2018-11-10T12:39:45.794Z,80.07
2018-11-10T12:42:14.008Z,80.35
2018-11-10T12:44:42.299Z,80.15
2018-11-10T12:47:10.510Z,80.73
2018-11-10T12:49:38.706Z,80.21
2018-11-10T12:52:06.912Z,80.32
2018-11-10T12:54:35.098Z,80.55
2018-11-10T12:57:03.510Z,80.77
2018-11-10T12:59:31.903Z,80.08
2018-11-10T13:02:00.114Z,80.21
2018-11-10T13:04:28.329Z,79.51
2018-11-10T13:06:56.584Z,79.72
2018-11-10T13:09:24.726Z,80.74
2018-11-10T13:11:53.054Z,80.51
2018-11-10T13:14:21.209Z,80.89
2018-11-10T13:16:49.385Z,80.24
2018-11-10T13:19:17.601Z,80.10
2018-11-10T13:21:45.906Z,80.25
2018-11-10T13:24:14.172Z,80.21
2018-11-10T13:26:42.326Z,79.74
2018-11-10T13:29:10.531Z,80.13
2018-11-10T13:31:38.922Z,80.60
2018-11-10T13:34:07.041Z,79.87
2018-11-10T13:36:35.253Z,79.63
2018-11-10T13:39:03.533Z,79.12
2018-11-10T13:41:31.733Z,80.07
2018-11-10T13:43:59.976Z,79.60
2018-11-10T13:46:28.125Z,78.98
2018-11-10T13:48:56.331Z,79.08
2018-11-10T13:51:24.719Z,79.15
2018-11-10T13:53:52.756Z,79.29
2018-11-10T13:56:20.946Z,78.91
2018-11-10T13:58:49.235Z,79.21
2018-11-10T14:01:17.467Z,78.65
2018-11-10T14:03:45.653Z,78.82
2018-11-10T14:06:13.871Z,78.12
2018-11-10T14:08:42.085Z,79.04
2018-11-10T14:11:10.321Z,78.89
2018-11-10T14:13:38.550Z,79.11
2018-11-10T14:16:06.792Z,78.38
2018-11-10T14:18:34.987Z,78.98
2018-11-10T14:21:03.219Z,79.18
2018-11-10T14:23:31.425Z,78.50
2018-11-10T14:25:59.647Z,78.70
2018-11-10T14:28:27.857Z,79.61
2018-11-10T14:30:56.044Z,79.13
2018-11-10T14:33:24.277Z,79.04
2018-11-10T14:35:52.490Z,78.98
2018-11-10T14:38:20.685Z,78.55
2018-11-10T14:40:48.881Z,78.37
2018-11-10T14:43:17.098Z,78.92
2018-11-10T14:45:45.325Z,78.82
2018-11-10T14:48:13.510Z,77.58
2018-11-10T14:50:41.710Z,77.15
2018-11-10T14:53:10.113Z,77.85
2018-11-10T14:55:38.142Z,77.47
2018-11-10T14:58:06.593Z,77.15
2018-11-10T15:00:34.794Z,76.89
2018-11-10T15:03:03.013Z,76.45
2018-11-10T15:05:31.277Z,76.18
2018-11-10T15:07:59.438Z,76.38
2018-11-10T15:10:27.638Z,76.59
2018-11-10T15:12:55.849Z,76.30
2018-11-10T15:15:24.034Z,76.52
2018-11-10T15:17:52.248Z,75.86
2018-11-10T15:20:20.813Z,76.69
2018-11-10T15:22:49.034Z,76.96
2018-11-10T15:25:19.732Z,77.89
2018-11-10T15:27:47.908Z,77.88
2018-11-10T15:30:17.358Z,77.15
2018-11-10T15:32:46.270Z,78.78
2018-11-10T15:35:15.770Z,78.41
2018-11-10T15:37:45.233Z,78.18
2018-11-10T15:40:14.292Z,78.42
2018-11-10T15:42:42.547Z,77.79
2018-11-10T15:45:11.942Z,78.59
2018-11-10T15:47:40.326Z,78.74
2018-11-10T15:50:09.731Z,77.91
2018-11-10T15:52:37.909Z,78.69
2018-11-10T15:55:07.449Z,79.09
2018-11-10T15:57:36.185Z,79.40
2018-11-10T16:00:04.569Z,79.25
2018-11-10T16:02:32.823Z,80.31
2018-11-10T16:05:01.039Z,79.65
2018-11-10T16:07:29.255Z,79.74
2018-11-10T16:09:57.844Z,80.06
2018-11-10T16:12:26.081Z,79.97
2018-11-10T16:14:54.394Z,80.58
2018-11-10T16:17:22.622Z,80.46
2018-11-10T16:19:50.930Z,81.00
2018-11-10T16:22:19.182Z,81.18
2018-11-10T16:24:48.539Z,81.17
2018-11-10T16:27:16.910Z,80.21
2018-11-10T16:29:45.093Z,80.63
2018-11-10T16:32:13.346Z,80.77
2018-11-10T16:34:41.552Z,80.43
2018-11-10T16:37:09.880Z,79.98
2018-11-10T16:39:38.070Z,80.80
2018-11-10T16:42:06.913Z,81.19
2018-11-10T16:44:35.204Z,80.81
2018-11-10T16:47:03.438Z,79.85
2018-11-10T16:49:31.766Z,80.78
2018-11-10T16:52:00.134Z,81.15
2018-11-10T16:54:28.505Z,81.00
2018-11-10T16:56:56.846Z,80.62
2018-11-10T16:59:25.159Z,80.09
2018-11-10T17:01:53.509Z,80.20
2018-11-10T17:04:21.751Z,80.64
2018-11-10T17:06:49.962Z,80.32
2018-11-10T17:09:18.221Z,79.88
2018-11-10T17:11:46.470Z,79.53
2018-11-10T17:14:14.808Z,80.28
2018-11-10T17:16:43.257Z,79.82
2018-11-10T17:19:11.488Z,80.22
2018-11-10T17:21:40.144Z,79.38
2018-11-10T17:24:08.349Z,78.88
2018-11-10T17:26:36.573Z,79.80
2018-11-10T17:29:04.859Z,79.61
2018-11-10T17:31:33.138Z,79.74
2018-11-10T17:34:01.370Z,79.33
2018-11-10T17:36:29.662Z,79.77
2018-11-10T17:38:57.891Z,79.65
2018-11-10T17:41:26.170Z,79.73
2018-11-10T17:43:54.427Z,79.82
2018-11-10T17:46:22.969Z,79.40
2018-11-10T17:48:51.274Z,79.65
2018-11-10T17:51:19.525Z,79.13
2018-11-10T17:53:47.774Z,79.00
2018-11-10T17:56:16.610Z,79.80
2018-11-10T17:58:44.884Z,79.88
2018-11-10T18:01:13.133Z,79.11
2018-11-10T18:03:41.444Z,78.79
2018-11-10T18:06:09.658Z,78.89
2018-11-10T18:08:37.865Z,78.73
2018-11-10T18:11:06.269Z,78.64
2018-11-10T18:13:34.517Z,78.10
2018-11-10T18:16:02.778Z,78.73
2018-11-10T18:18:31.075Z,78.82
2018-11-10T18:20:59.494Z,78.36
2018-11-10T18:23:27.745Z,78.81
2018-11-10T18:25:56.009Z,78.11
2018-11-10T18:28:24.298Z,78.55
2018-11-10T18:30:52.611Z,78.52
2018-11-10T18:33:20.812Z,78.25
2018-11-10T18:35:49.279Z,78.44
2018-11-10T18:38:18.370Z,78.06
2018-11-10T18:40:46.594Z,77.65
2018-11-10T18:43:14.841Z,77.39
2018-11-10T18:45:43.141Z,78.15
2018-11-10T18:48:11.361Z,79.57
2018-11-10T18:50:39.555Z,81.86
2018-11-10T18:55:34.255Z,85.68
2018-11-10T18:58:02.580Z,86.91
2018-11-10T19:00:30.821Z,88.00
2018-11-10T19:02:59.098Z,87.22
2018-11-10T19:05:27.397Z,87.99
2018-11-10T19:07:55.742Z,88.40
2018-11-10T19:10:23.949Z,89.34
2018-11-10T19:12:52.243Z,89.40
2018-11-10T19:15:21.173Z,91.03
2018-11-10T19:17:49.653Z,91.63
2018-11-10T19:20:18.471Z,91.62
2018-11-10T19:22:46.796Z,92.30
2018-11-10T19:25:15.290Z,92.86
2018-11-10T19:27:43.561Z,93.36
2018-11-10T19:30:15.838Z,93.79
2018-11-10T19:32:44.527Z,94.14
2018-11-10T19:35:12.861Z,94.31
2018-11-10T19:37:41.124Z,94.91
2018-11-10T19:40:10.177Z,94.26
2018-11-10T19:42:38.480Z,94.79
2018-11-10T19:45:07.602Z,95.09
2018-11-10T19:47:35.854Z,95.02
2018-11-10T19:50:04.312Z,94.45
2018-11-10T19:52:32.518Z,94.53
2018-11-10T19:55:00.787Z,95.20
2018-11-10T19:57:29.074Z,95.61
2018-11-10T19:59:57.361Z,95.58
2018-11-10T20:02:25.542Z,95.61
2018-11-10T20:04:53.829Z,95.06
2018-11-10T20:07:22.171Z,95.35
2018-11-10T20:09:50.346Z,95.10
2018-11-10T20:12:18.519Z,95.48
2018-11-10T20:14:46.801Z,96.05
2018-11-10T20:17:15.069Z,95.03
2018-11-10T20:19:43.543Z,96.64
2018-11-10T20:22:11.753Z,96.25
2018-11-10T20:24:39.985Z,95.05
2018-11-10T20:27:08.370Z,94.72
2018-11-10T20:29:36.669Z,95.02
2018-11-10T20:32:05.016Z,96.06
2018-11-10T20:34:33.434Z,95.06
2018-11-10T20:37:01.748Z,96.08
2018-11-10T20:39:29.990Z,95.18
2018-11-10T20:41:58.277Z,94.55
2018-11-10T20:44:26.553Z,94.97
2018-11-10T20:46:54.896Z,94.85
2018-11-10T20:49:23.093Z,94.93
2018-11-10T20:51:51.419Z,95.73
2018-11-10T20:54:19.830Z,95.66
2018-11-10T20:56:48.186Z,95.73
2018-11-10T20:59:16.448Z,95.26
2018-11-10T21:01:44.751Z,94.54
2018-11-10T21:04:13.235Z,95.36
2018-11-10T21:06:41.461Z,95.10
2018-11-10T21:09:12.092Z,95.11
2018-11-10T21:11:40.405Z,94.56
2018-11-10T21:14:09.402Z,95.34
2018-11-10T21:16:37.768Z,95.52
2018-11-10T21:19:06.355Z,96.05
2018-11-10T21:21:34.693Z,94.89
2018-11-10T21:24:03.013Z,95.43
2018-11-10T21:26:31.437Z,94.80
2018-11-10T21:28:59.845Z,94.85
2018-11-10T21:31:28.446Z,95.08
2018-11-10T21:33:57.128Z,94.87
2018-11-10T21:36:25.395Z,93.45
2018-11-10T21:38:53.641Z,93.62
2018-11-10T21:41:22.001Z,93.44
2018-11-10T21:43:50.383Z,93.05
2018-11-10T21:46:18.566Z,94.65
2018-11-10T21:48:46.753Z,94.95
2018-11-10T21:51:14.961Z,92.88
2018-11-10T21:53:43.414Z,93.11
2018-11-10T21:56:11.614Z,92.28
2018-11-10T21:58:39.825Z,92.80
2018-11-10T22:01:08.089Z,92.71
2018-11-10T22:03:36.469Z,92.10
2018-11-10T22:06:05.113Z,92.59
2018-11-10T22:08:33.360Z,92.09
2018-11-10T22:11:01.676Z,91.72
2018-11-10T22:13:30.215Z,91.94
2018-11-10T22:15:58.544Z,90.88
2018-11-10T22:18:27.316Z,91.26
2018-11-10T22:20:55.562Z,90.30
2018-11-10T22:23:23.813Z,89.66
2018-11-10T22:25:52.169Z,90.44
2018-11-10T22:28:20.485Z,91.03
2018-11-10T22:30:48.824Z,89.66
2018-11-10T22:33:17.069Z,89.44
2018-11-10T22:35:45.318Z,89.39
2018-11-10T22:38:13.657Z,88.97
2018-11-10T22:40:41.862Z,89.25
2018-11-10T22:43:10.157Z,90.20
2018-11-10T22:45:38.447Z,90.05
2018-11-10T22:48:06.767Z,90.79
2018-11-10T22:50:34.979Z,90.55
2018-11-10T22:53:03.282Z,90.72
2018-11-10T22:55:31.513Z,90.39
2018-11-10T22:57:59.790Z,90.76
2018-11-10T23:00:28.415Z,89.67
2018-11-10T23:02:58.890Z,89.56
2018-11-10T23:05:27.202Z,90.15
2018-11-10T23:07:55.610Z,89.40
2018-11-10T23:10:23.964Z,90.23
2018-11-10T23:12:53.094Z,89.55
2018-11-10T23:15:21.418Z,89.68
2018-11-10T23:17:49.922Z,90.24
2018-11-10T23:27:18.941Z,91.64
2018-11-10T23:29:49.263Z,90.93
2018-11-10T23:32:39.732Z,90.67
2018-11-10T23:35:15.835Z,90.63
2018-11-10T23:37:54.278Z,90.82
2018-11-10T23:40:30.845Z,90.43
2018-11-10T23:45:53.432Z,89.37
2018-11-10T23:48:28.634Z,89.91
2018-11-10T23:51:19.893Z,89.34
2018-11-10T23:53:48.144Z,88.86
2018-11-10T23:56:28.486Z,89.17
2018-11-10T23:59:04.045Z,89.18
